Lower Ranchito, New Mexico
Current Conditions -  °F | °C
As of 6:35 PM on Saturday 25 Oct 2014 (Local Time) from KSKX Reporting Station
Clear Clear  
Wind Chill: 61°   Ceiling: Unl
Heat Index: 61°   Visibility: 10mi
Dew Point: 19°   Wind: 10mph
Humidity: 20%   Direction: 240°WSW
Pressure: 30.25"   Gusts: NA
Location:  36.6959°N, 106.135°W
Report Text: KSKX 260035Z AUTO 24009KT 10SM CLR 16/M07 A3025 RMK AO1
Loading
Personal Weather Stations






























Interactive Weather Map New forecast layout! Learn more

10-Day Weather Forecast

Advertisements
Track Severe Weather on mobile